weather.gov     
National Weather Service

Terminal Aerodrome Forecast
NWS Homepage
This page is being discontinued on March 12, 2014.
The same data is available at this site. Please update your bookmarks.
Thank you, and we apologize for the inconvenience.
Please send an email to SR-SRH.Webmaster@noaa.gov with any concerns.


Current Version
Previous Version:    01  02  03  04  05  06  07  08  09  10  11  12  13  14  15  16  17  18  19  20  21  22  23  24  25  26  27  28  29  
[Printable]
464
FTUS45 KBYZ 242335
TAFSHR
TAF
KSHR 242335Z 2500/2524 30022G32KT P6SM -SN BKN060
     FM250100 30010KT P6SM BKN050 BKN080
     FM250800 24010KT P6SM BKN060 OVC150 WS020/27040KT
     FM251700 27010KT P6SM VCSH BKN040 OVC100 WS020/30050KT=




464
FTUS45 KBYZ 242335
TAFSHR
TAF
KSHR 242335Z 2500/2524 30022G32KT P6SM -SN BKN060
     FM250100 30010KT P6SM BKN050 BKN080
     FM250800 24010KT P6SM BKN060 OVC150 WS020/27040KT
     FM251700 27010KT P6SM VCSH BKN040 OVC100 WS020/30050KT=


U.S. Dept. of Commerce
NOAA National Weather Service
1325 East West Highway
Silver Spring, MD 20910
E-mail: w-nws.webmaster@noaa.gov
Page last modified: May 16, 2007
NATIONAL WEATHER SERVICE: for Safety, for Work, for Fun - FOR LIFE